Weather at Flugplatz Birrfeld

Public forecast

Using degrees Celsius for public forecast. Weather courtesy of forecast.io.

Closest aviation weather report (METAR) to Flugplatz Birrfeld

Closest report is Zürich Airport, 12.8 nm (23.7 km) E. Retrieved 2021/05/11 19:20 UTC (6 minutes ago):

LSZH 111920Z 15004KT 9999 -RA SCT030 BKN045 11/09 Q1012 NOSIG

Closest aviation forecast (TAF) to Flugplatz Birrfeld

Closest forecast is Zürich Airport, 12.8 nm (23.7 km) E. Retrieved 2021/05/11 18:33 UTC (53 minutes ago):

TAF LSZH 111725Z 1118/1224 25005KT 9999 FEW010 BKN035 TX14/1214Z TN09/1204Z TEMPO 1118/1203 SHRA BKN020TCU